Time;durP1;ratioP1;P1;durP2;ratioP2;P2;SDS_P1;SDS_P2;PMS_P1;PMS_P2;Temp;Humidity;BMP_temperature;BMP_pressure;BME280_temperature;BME280_humidity;BME280_pressure;Samples;Min_cycle;Max_cycle;Signal;HPM_P1;HPM_P2
2021/04/09 00:00:10;;;;;;;10.07;8.85;;;3.20;96.70;;;;;;5031855;28;20212;-43
2021/04/09 00:02:38;;;;;;;11.68;8.95;;;3.20;96.40;;;;;;5031591;28;20201;-42
2021/04/09 00:05:07;;;;;;;10.18;8.82;;;3.20;96.40;;;;;;5031821;28;20323;-42
2021/04/09 00:07:34;;;;;;;10.82;7.85;;;3.20;96.40;;;;;;5031741;28;20212;-42
2021/04/09 00:10:01;;;;;;;9.18;8.25;;;3.30;96.40;;;;;;5031847;28;20287;-41
2021/04/09 00:12:28;;;;;;;10.60;8.52;;;3.30;96.30;;;;;;5032148;28;20240;-41
2021/04/09 00:14:54;;;;;;;11.55;9.43;;;3.30;96.30;;;;;;5032082;28;20251;-41
2021/04/09 00:17:21;;;;;;;11.02;8.43;;;3.30;96.20;;;;;;5031796;28;20299;-41
2021/04/09 00:19:49;;;;;;;10.95;8.07;;;3.30;96.20;;;;;;5031816;28;20621;-42
2021/04/09 00:22:16;;;;;;;10.60;7.35;;;3.30;96.20;;;;;;5031795;28;20247;-41
2021/04/09 00:24:43;;;;;;;11.77;7.45;;;3.30;96.20;;;;;;5031615;28;20260;-41
2021/04/09 00:27:10;;;;;;;9.05;8.07;;;3.30;96.20;;;;;;5031708;28;20297;-41
2021/04/09 00:29:38;;;;;;;13.02;8.98;;;3.40;96.20;;;;;;5031595;28;20304;-41
2021/04/09 00:32:06;;;;;;;12.82;9.60;;;3.40;96.20;;;;;;5031650;28;20307;-41
2021/04/09 00:34:33;;;;;;;9.68;8.05;;;3.40;96.10;;;;;;5031830;28;20208;-41
2021/04/09 00:37:02;;;;;;;11.50;8.23;;;3.40;96.10;;;;;;5031448;28;20215;-41
2021/04/09 00:39:29;;;;;;;8.18;7.38;;;3.30;96.10;;;;;;5031782;28;20266;-41
2021/04/09 00:41:55;;;;;;;9.52;8.52;;;3.30;96.20;;;;;;5031760;28;20240;-42
2021/04/09 00:44:22;;;;;;;9.07;8.15;;;3.30;96.20;;;;;;5031430;28;20232;-41
2021/04/09 00:46:50;;;;;;;8.38;7.28;;;3.30;96.10;;;;;;5031455;28;20766;-42
2021/04/09 00:49:18;;;;;;;9.30;8.07;;;3.30;96.10;;;;;;5031585;28;20220;-41
2021/04/09 00:51:46;;;;;;;10.07;8.05;;;3.30;96.00;;;;;;5031399;28;20780;-41
2021/04/09 00:54:14;;;;;;;8.02;7.07;;;3.40;96.00;;;;;;5031311;28;20715;-41
2021/04/09 00:56:41;;;;;;;7.72;6.82;;;3.40;96.00;;;;;;5031669;28;20303;-43
2021/04/09 00:59:08;;;;;;;7.65;6.65;;;3.40;96.00;;;;;;5031477;28;20213;-41
2021/04/09 01:01:35;;;;;;;8.48;7.45;;;3.40;96.00;;;;;;5031426;28;20313;-41
2021/04/09 01:04:03;;;;;;;7.80;7.10;;;3.40;96.00;;;;;;5031340;28;20240;-41
2021/04/09 01:06:29;;;;;;;11.65;6.50;;;3.40;96.00;;;;;;5031330;28;20307;-41
2021/04/09 01:08:56;;;;;;;8.75;7.13;;;3.40;96.00;;;;;;5031479;28;20241;-42
2021/04/09 01:11:24;;;;;;;7.93;6.50;;;3.30;96.00;;;;;;5031444;28;20613;-41
2021/04/09 01:13:51;;;;;;;8.00;6.90;;;3.40;96.00;;;;;;5031305;28;20331;-44
2021/04/09 01:16:27;;;;;;;10.30;7.93;;;3.40;96.00;;;;;;5031329;28;20208;-41
2021/04/09 01:19:02;;;;;;;7.88;6.55;;;3.40;95.90;;;;;;5031815;28;20208;-41
2021/04/09 01:21:36;;;;;;;9.43;7.72;;;3.50;95.80;;;;;;5034804;28;20208;-41
2021/04/09 01:24:15;;;;;;;10.00;7.15;;;3.50;95.80;;;;;;5034972;28;20320;-42
2021/04/09 01:27:26;;;;;;;7.30;6.18;;;3.50;95.70;;;;;;5034576;28;20703;-41
2021/04/09 01:30:36;;;;;;;7.32;6.28;;;3.50;95.80;;;;;;5033180;28;20307;-41
2021/04/09 01:33:06;;;;;;;7.82;7.05;;;3.50;95.70;;;;;;5029781;28;20642;-44
2021/04/09 01:35:37;;;;;;;8.80;6.70;;;3.50;95.70;;;;;;5035004;28;20283;-40
2021/04/09 01:38:07;;;;;;;9.63;6.93;;;3.40;95.70;;;;;;5034607;28;20307;-41
2021/04/09 01:40:37;;;;;;;9.70;6.88;;;3.40;95.80;;;;;;5034541;28;20680;-41
2021/04/09 01:43:06;;;;;;;6.88;6.15;;;3.40;95.90;;;;;;5034126;28;20648;-43
2021/04/09 01:45:34;;;;;;;6.88;6.18;;;3.30;95.90;;;;;;5034294;28;20260;-40
2021/04/09 01:48:04;;;;;;;9.18;7.38;;;3.30;96.00;;;;;;5034266;28;20267;-41
2021/04/09 01:50:32;;;;;;;7.57;6.30;;;3.30;96.00;;;;;;5034233;28;20672;-41
2021/04/09 01:53:01;;;;;;;9.15;7.03;;;3.30;96.00;;;;;;5034527;28;20294;-40
2021/04/09 01:55:32;;;;;;;7.55;6.15;;;3.30;96.00;;;;;;5034332;28;20292;-41
2021/04/09 01:58:00;;;;;;;10.95;7.25;;;3.20;96.00;;;;;;5034535;28;20236;-41
2021/04/09 02:00:27;;;;;;;9.07;6.65;;;3.20;96.10;;;;;;5034433;28;20255;-41
2021/04/09 02:02:55;;;;;;;8.35;7.43;;;3.20;96.20;;;;;;5034232;28;20296;-41
2021/04/09 02:05:26;;;;;;;7.13;6.40;;;3.10;96.20;;;;;;5033792;28;20228;-42
2021/04/09 02:07:55;;;;;;;6.75;6.05;;;3.10;96.30;;;;;;5013814;28;20664;-42
2021/04/09 02:10:24;;;;;;;7.90;6.75;;;3.10;96.30;;;;;;5014797;28;20600;-41
2021/04/09 02:12:53;;;;;;;8.00;6.20;;;3.10;96.40;;;;;;5014368;28;20248;-42
2021/04/09 02:15:22;;;;;;;12.98;6.80;;;3.10;96.40;;;;;;5014109;28;20237;-41
2021/04/09 02:17:50;;;;;;;7.93;6.72;;;3.00;96.40;;;;;;5014183;28;20297;-43
2021/04/09 02:20:18;;;;;;;8.48;6.93;;;3.10;96.50;;;;;;5014080;28;20283;-41
2021/04/09 02:22:48;;;;;;;9.65;6.40;;;3.10;96.50;;;;;;5014079;28;20213;-40
2021/04/09 02:25:18;;;;;;;9.57;7.15;;;3.10;96.70;;;;;;5013879;28;20315;-41
2021/04/09 02:27:46;;;;;;;10.55;6.85;;;3.10;96.40;;;;;;5013950;28;20248;-40
2021/04/09 02:30:16;;;;;;;7.85;5.93;;;3.10;96.40;;;;;;5013732;28;20704;-41
2021/04/09 02:32:43;;;;;;;9.02;7.15;;;3.10;96.50;;;;;;5013851;28;20296;-43
2021/04/09 02:35:14;;;;;;;7.25;6.30;;;3.10;96.50;;;;;;5013791;28;20221;-40
2021/04/09 02:37:44;;;;;;;11.30;6.90;;;3.00;96.60;;;;;;5013811;28;20244;-40
2021/04/09 02:40:14;;;;;;;8.48;6.95;;;3.00;96.60;;;;;;5013776;28;20305;-40
2021/04/09 02:42:46;;;;;;;7.72;5.68;;;3.00;96.60;;;;;;5014091;28;20256;-41
2021/04/09 02:45:15;;;;;;;9.23;6.43;;;3.00;96.70;;;;;;5013668;28;20230;-41
2021/04/09 02:47:43;;;;;;;10.75;6.40;;;3.00;96.60;;;;;;5013598;28;20716;-41
2021/04/09 02:50:14;;;;;;;8.73;6.97;;;3.00;96.70;;;;;;5013351;28;20264;-43
2021/04/09 02:52:46;;;;;;;10.43;7.93;;;3.00;96.60;;;;;;5013302;28;20665;-42
2021/04/09 02:55:19;;;;;;;10.80;8.10;;;2.90;96.70;;;;;;5013383;28;20639;-40
2021/04/09 02:57:48;;;;;;;8.15;6.45;;;2.90;96.80;;;;;;5013327;28;20680;-41
2021/04/09 03:00:18;;;;;;;12.68;7.50;;;2.90;96.80;;;;;;5013388;28;20703;-40
2021/04/09 03:02:47;;;;;;;11.98;7.07;;;2.80;96.90;;;;;;5013108;28;20615;-41
2021/04/09 03:05:17;;;;;;;10.05;6.85;;;2.80;96.90;;;;;;5013038;28;20320;-40
2021/04/09 03:07:44;;;;;;;8.63;7.20;;;2.80;97.00;;;;;;5013250;28;20209;-40
2021/04/09 03:10:16;;;;;;;9.07;7.22;;;2.80;97.00;;;;;;4995881;28;20680;-40
2021/04/09 03:12:44;;;;;;;11.65;7.13;;;2.70;97.10;;;;;;5013317;28;20237;-40
2021/04/09 03:15:16;;;;;;;9.35;6.55;;;2.70;97.10;;;;;;5012860;28;20209;-41
2021/04/09 03:17:52;;;;;;;8.77;6.38;;;2.70;97.10;;;;;;5013271;28;20213;-41
2021/04/09 03:20:19;;;;;;;10.70;6.85;;;2.70;97.10;;;;;;5013140;28;20304;-40
2021/04/09 03:22:47;;;;;;;8.40;6.75;;;2.70;97.20;;;;;;5012941;28;20244;-40
2021/04/09 03:25:15;;;;;;;9.10;7.72;;;2.70;97.20;;;;;;5012758;28;20265;-40
2021/04/09 03:27:42;;;;;;;7.15;6.45;;;2.60;97.30;;;;;;5012442;28;20247;-40
2021/04/09 03:30:11;;;;;;;10.68;8.13;;;2.60;97.30;;;;;;5012775;28;20301;-41
2021/04/09 03:32:38;;;;;;;10.60;9.40;;;2.60;97.40;;;;;;5012827;28;20220;-40
2021/04/09 03:35:06;;;;;;;22.58;15.43;;;2.60;97.50;;;;;;5012688;28;20201;-41
2021/04/09 03:37:33;;;;;;;16.00;10.13;;;2.50;97.50;;;;;;5012698;28;20244;-41
2021/04/09 03:40:01;;;;;;;10.75;9.07;;;2.50;97.60;;;;;;5012553;28;20649;-40
2021/04/09 03:42:29;;;;;;;11.95;8.02;;;2.50;97.70;;;;;;5011881;28;20498;-42
2021/04/09 03:44:56;;;;;;;10.00;7.70;;;2.50;97.70;;;;;;5012675;28;20671;-41
2021/04/09 03:47:23;;;;;;;9.32;7.30;;;2.50;97.70;;;;;;5012652;28;20209;-41
2021/04/09 03:49:50;;;;;;;10.02;6.78;;;2.50;97.70;;;;;;5012552;28;20284;-40
2021/04/09 03:52:17;;;;;;;16.00;7.57;;;2.50;97.70;;;;;;5012605;28;20249;-40
2021/04/09 03:54:44;;;;;;;7.97;7.00;;;2.40;97.70;;;;;;5012327;28;20212;-40
2021/04/09 03:57:11;;;;;;;9.82;6.45;;;2.40;97.80;;;;;;5012552;28;20249;-40
2021/04/09 03:59:39;;;;;;;9.40;8.13;;;2.40;97.90;;;;;;5012270;28;20296;-41
2021/04/09 04:02:06;;;;;;;17.38;13.35;;;2.40;97.90;;;;;;5012291;28;20303;-41
2021/04/09 04:04:33;;;;;;;7.72;6.93;;;2.40;97.90;;;;;;5011909;28;20229;-41
2021/04/09 04:07:01;;;;;;;10.18;6.97;;;2.40;97.90;;;;;;5011850;28;20305;-42
2021/04/09 04:09:28;;;;;;;11.50;7.15;;;2.50;97.90;;;;;;5012422;28;20233;-41
2021/04/09 04:11:55;;;;;;;9.27;6.70;;;2.50;97.90;;;;;;5012095;28;20217;-42
2021/04/09 04:14:23;;;;;;;7.80;7.00;;;2.50;97.90;;;;;;5012540;28;20210;-43
2021/04/09 04:16:50;;;;;;;7.20;6.00;;;2.50;97.90;;;;;;5012366;28;20316;-41
2021/04/09 04:19:18;;;;;;;8.30;7.20;;;2.40;98.00;;;;;;5012122;28;20205;-41
2021/04/09 04:21:45;;;;;;;7.97;7.10;;;2.30;98.10;;;;;;5012073;28;20209;-44
2021/04/09 04:24:12;;;;;;;9.40;7.28;;;2.30;98.20;;;;;;5012058;28;20240;-42
2021/04/09 04:26:39;;;;;;;9.23;6.93;;;2.30;98.10;;;;;;5011911;28;20404;-42
2021/04/09 04:29:06;;;;;;;8.45;7.22;;;2.30;98.10;;;;;;5012401;28;20309;-42
2021/04/09 04:31:33;;;;;;;15.13;7.70;;;2.30;98.20;;;;;;5012022;28;20227;-41
2021/04/09 04:34:01;;;;;;;14.68;7.90;;;2.30;98.10;;;;;;5012064;28;20220;-42
2021/04/09 04:36:28;;;;;;;8.35;7.28;;;2.30;98.10;;;;;;5011967;28;20216;-42
2021/04/09 04:38:55;;;;;;;8.10;7.20;;;2.30;98.20;;;;;;5012025;28;20304;-43
2021/04/09 04:41:23;;;;;;;7.93;6.70;;;2.30;98.10;;;;;;5011814;28;20209;-42
2021/04/09 04:43:50;;;;;;;7.85;6.43;;;2.30;98.10;;;;;;5011938;28;20735;-41
2021/04/09 04:46:18;;;;;;;7.10;5.80;;;2.30;98.10;;;;;;5011887;28;20324;-42
2021/04/09 04:48:46;;;;;;;6.00;5.32;;;2.30;98.20;;;;;;5012187;28;20217;-42
2021/04/09 04:51:13;;;;;;;8.13;6.20;;;2.30;98.10;;;;;;5011811;28;20244;-42
2021/04/09 04:53:40;;;;;;;8.00;5.53;;;2.30;98.10;;;;;;5011838;28;20248;-40
2021/04/09 04:56:07;;;;;;;7.47;5.82;;;2.40;98.10;;;;;;5015556;28;20210;-39
2021/04/09 04:58:34;;;;;;;6.65;5.75;;;2.40;98.10;;;;;;5016049;28;20272;-43
2021/04/09 05:01:01;;;;;;;12.02;6.03;;;2.30;98.10;;;;;;5015589;28;20292;-42
2021/04/09 05:03:28;;;;;;;8.82;6.22;;;2.40;98.20;;;;;;5015481;28;20248;-41
2021/04/09 05:05:55;;;;;;;14.73;6.57;;;2.30;98.10;;;;;;5015414;28;20327;-40
2021/04/09 05:08:24;;;;;;;6.28;5.68;;;2.40;98.10;;;;;;5015343;28;20249;-40
2021/04/09 05:10:51;;;;;;;11.77;6.57;;;2.50;98.10;;;;;;5015257;28;20640;-42
2021/04/09 05:13:18;;;;;;;8.00;5.95;;;2.50;98.10;;;;;;5015092;28;20246;-41
2021/04/09 05:15:45;;;;;;;18.67;11.80;;;2.60;98.00;;;;;;5015066;28;20296;-42
2021/04/09 05:18:12;;;;;;;11.10;8.75;;;2.70;97.90;;;;;;5014921;28;20216;-40
2021/04/09 05:20:39;;;;;;;9.75;7.88;;;2.80;97.90;;;;;;5015179;28;20300;-41
2021/04/09 05:23:06;;;;;;;7.20;6.50;;;2.90;97.80;;;;;;5014922;28;20248;-41
2021/04/09 05:25:34;;;;;;;6.00;5.28;;;3.00;97.60;;;;;;5014738;28;20511;-40
2021/04/09 05:28:01;;;;;;;8.68;6.47;;;3.10;97.50;;;;;;5014695;28;20260;-40
2021/04/09 05:30:28;;;;;;;6.20;5.60;;;3.20;97.30;;;;;;5014445;28;20300;-41
2021/04/09 05:32:56;;;;;;;7.35;5.80;;;3.30;97.20;;;;;;5014447;28;20216;-40
2021/04/09 05:35:25;;;;;;;10.15;6.55;;;3.30;97.10;;;;;;5014862;28;20209;-40
2021/04/09 05:37:52;;;;;;;9.57;6.07;;;3.40;96.90;;;;;;5014591;28;20217;-41
2021/04/09 05:40:21;;;;;;;7.60;6.30;;;3.40;96.80;;;;;;5014843;28;20221;-41
2021/04/09 05:42:55;;;;;;;8.57;6.60;;;3.50;96.80;;;;;;5014730;28;20255;-41
2021/04/09 05:45:23;;;;;;;9.80;6.45;;;3.50;96.70;;;;;;5014517;28;20225;-41
2021/04/09 05:47:52;;;;;;;7.43;5.20;;;3.50;96.50;;;;;;5014511;28;20309;-41
2021/04/09 05:50:19;;;;;;;8.65;6.03;;;3.60;96.40;;;;;;5014348;28;20671;-41
2021/04/09 05:52:47;;;;;;;9.32;7.15;;;3.70;96.10;;;;;;5014491;28;20267;-42
2021/04/09 05:55:14;;;;;;;8.80;5.63;;;3.80;95.90;;;;;;5014298;28;20611;-41
2021/04/09 05:57:41;;;;;;;7.47;5.63;;;3.90;95.60;;;;;;5014073;28;20272;-41
2021/04/09 06:00:12;;;;;;;6.88;5.70;;;4.00;95.30;;;;;;5014155;28;20551;-41
2021/04/09 06:02:39;;;;;;;9.30;5.35;;;4.10;95.00;;;;;;5014462;28;20623;-43
2021/04/09 06:05:07;;;;;;;8.02;5.68;;;4.20;95.10;;;;;;5013724;28;20233;-42
2021/04/09 06:07:34;;;;;;;5.38;4.72;;;4.30;94.60;;;;;;5014009;28;20626;-42
2021/04/09 06:10:01;;;;;;;8.13;5.75;;;4.40;94.40;;;;;;5014052;28;20219;-42
2021/04/09 06:12:28;;;;;;;7.00;4.88;;;4.50;94.10;;;;;;5013877;28;20209;-42
2021/04/09 06:14:55;;;;;;;7.10;4.95;;;4.70;93.70;;;;;;5014002;28;20240;-43
2021/04/09 06:17:24;;;;;;;8.60;5.60;;;4.70;93.60;;;;;;5013965;28;20205;-43
2021/04/09 06:19:51;;;;;;;9.52;5.40;;;4.90;93.40;;;;;;5013873;28;20217;-42
2021/04/09 06:22:18;;;;;;;7.20;4.85;;;5.00;93.10;;;;;;5013840;28;20205;-43
2021/04/09 06:24:45;;;;;;;13.45;5.57;;;5.10;92.80;;;;;;5013731;28;20235;-43
2021/04/09 06:27:12;;;;;;;8.55;5.20;;;5.20;92.40;;;;;;5013536;28;20336;-43
2021/04/09 06:29:39;;;;;;;12.30;5.57;;;5.30;92.30;;;;;;5013818;28;20209;-42
2021/04/09 06:32:08;;;;;;;14.18;5.95;;;5.40;92.10;;;;;;5013800;28;20209;-43
2021/04/09 06:34:36;;;;;;;8.20;5.70;;;5.40;91.90;;;;;;5013502;28;20220;-45
2021/04/09 06:37:03;;;;;;;7.97;5.65;;;5.50;91.70;;;;;;5013693;28;20271;-43
2021/04/09 06:39:30;;;;;;;6.72;4.53;;;5.60;91.40;;;;;;5013540;28;20213;-45
2021/04/09 06:41:59;;;;;;;6.65;4.45;;;5.60;91.30;;;;;;5013500;28;20300;-42
2021/04/09 06:44:28;;;;;;;5.72;4.28;;;5.60;91.20;;;;;;5013489;28;20209;-41
2021/04/09 06:46:57;;;;;;;13.80;4.57;;;5.70;91.00;;;;;;5013523;28;20214;-41
2021/04/09 06:49:25;;;;;;;9.85;4.95;;;5.70;90.80;;;;;;5013293;28;20672;-41
2021/04/09 06:51:52;;;;;;;6.75;4.25;;;5.90;90.70;;;;;;5013356;28;20209;-43
2021/04/09 06:54:24;;;;;;;9.73;4.25;;;6.00;90.30;;;;;;5013227;28;20672;-42
2021/04/09 06:56:52;;;;;;;8.48;4.50;;;6.30;89.70;;;;;;5013211;28;20212;-42
2021/04/09 06:59:24;;;;;;;4.75;3.97;;;6.40;89.00;;;;;;5013140;28;20256;-43
2021/04/09 07:01:52;;;;;;;7.13;4.25;;;6.50;88.40;;;;;;5013245;28;20283;-42
2021/04/09 07:04:19;;;;;;;5.85;4.15;;;6.60;87.80;;;;;;5012970;28;20308;-42
2021/04/09 07:06:46;;;;;;;7.63;4.15;;;6.70;87.00;;;;;;5013175;28;20281;-43
2021/04/09 07:09:15;;;;;;;5.07;3.83;;;6.90;86.60;;;;;;5012966;28;20645;-43
2021/04/09 07:11:49;;;;;;;5.18;4.00;;;7.10;85.80;;;;;;5013019;28;20209;-42
2021/04/09 07:14:16;;;;;;;8.73;4.38;;;7.20;85.30;;;;;;5012966;28;20212;-43
2021/04/09 07:16:57;;;;;;;5.63;3.38;;;7.40;84.10;;;;;;5012118;28;20206;-44
2021/04/09 07:19:34;;;;;;;7.45;3.60;;;7.40;82.90;;;;;;5012821;28;20291;-42
2021/04/09 07:22:04;;;;;;;6.20;3.35;;;7.40;82.60;;;;;;5012749;28;20229;-43
2021/04/09 07:24:33;;;;;;;8.10;4.95;;;7.50;82.30;;;;;;5012625;28;20300;-43
2021/04/09 07:27:00;;;;;;;7.20;4.15;;;7.50;81.60;;;;;;5012691;28;20677;-43
2021/04/09 07:29:36;;;;;;;7.57;3.72;;;7.50;81.50;;;;;;5012570;28;20213;-43
2021/04/09 07:32:23;;;;;;;10.02;4.32;;;7.70;81.20;;;;;;5012690;28;20341;-44
2021/04/09 07:34:51;;;;;;;3.67;3.38;;;7.90;80.10;;;;;;5002135;28;20281;-42
2021/04/09 07:37:18;;;;;;;4.78;3.20;;;8.00;79.30;;;;;;5012519;28;20225;-42
2021/04/09 07:39:47;;;;;;;4.60;3.25;;;8.00;78.90;;;;;;5012602;28;20213;-42
2021/04/09 07:42:15;;;;;;;5.10;3.83;;;8.00;78.60;;;;;;5013007;28;20209;-45
2021/04/09 07:44:42;;;;;;;5.13;3.70;;;8.10;78.50;;;;;;5012241;28;20213;-44
2021/04/09 07:47:11;;;;;;;6.82;3.55;;;8.30;77.80;;;;;;5013279;28;20216;-42
2021/04/09 07:49:38;;;;;;;4.55;3.72;;;8.30;77.40;;;;;;5012167;28;20209;-43
2021/04/09 07:52:10;;;;;;;5.45;3.97;;;8.40;77.30;;;;;;5012197;28;20225;-43
2021/04/09 07:54:37;;;;;;;6.13;3.92;;;8.50;76.70;;;;;;5012042;28;20210;-43
2021/04/09 07:57:07;;;;;;;5.50;3.70;;;8.60;76.80;;;;;;5012168;28;20626;-42
2021/04/09 07:59:37;;;;;;;6.32;4.05;;;8.60;76.40;;;;;;5012014;28;20213;-42
2021/04/09 08:02:05;;;;;;;6.13;4.22;;;8.70;76.40;;;;;;5012132;28;20754;-42
2021/04/09 08:04:39;;;;;;;7.57;4.85;;;8.90;75.90;;;;;;5012180;28;20739;-42
2021/04/09 08:07:08;;;;;;;7.63;4.00;;;9.10;75.60;;;;;;5012466;28;20672;-42
2021/04/09 08:09:48;;;;;;;5.32;3.15;;;9.30;75.20;;;;;;5012234;28;20292;-42
2021/04/09 08:12:26;;;;;;;4.40;4.00;;;9.40;75.10;;;;;;5012181;28;20209;-42
2021/04/09 08:14:54;;;;;;;7.85;3.88;;;9.60;73.50;;;;;;5011360;28;20337;-43
2021/04/09 08:17:22;;;;;;;7.57;4.28;;;9.90;73.30;;;;;;5022022;28;20243;-46
2021/04/09 08:19:53;;;;;;;6.97;4.45;;;10.10;72.60;;;;;;5031436;28;20205;-42
2021/04/09 08:22:22;;;;;;;6.63;4.43;;;10.20;71.80;;;;;;5031615;28;20236;-43
2021/04/09 08:24:49;;;;;;;8.27;4.22;;;10.40;71.90;;;;;;5031556;28;20358;-44
2021/04/09 08:27:17;;;;;;;6.80;3.75;;;10.50;70.90;;;;;;5031314;28;20262;-44
2021/04/09 08:29:46;;;;;;;5.72;3.97;;;10.60;70.10;;;;;;5034544;28;20205;-45
2021/04/09 08:32:16;;;;;;;7.63;4.40;;;10.80;69.70;;;;;;5035885;28;20634;-43
2021/04/09 08:34:44;;;;;;;9.85;5.03;;;11.00;69.00;;;;;;5035656;28;20212;-43
2021/04/09 08:37:13;;;;;;;4.90;4.05;;;11.20;68.40;;;;;;5035541;28;20296;-43
2021/04/09 08:39:43;;;;;;;9.18;5.75;;;11.30;67.20;;;;;;5035688;28;20204;-43
2021/04/09 08:42:10;;;;;;;12.38;5.40;;;11.40;66.80;;;;;;5035274;28;20448;-45
2021/04/09 08:44:37;;;;;;;6.10;4.75;;;11.50;66.70;;;;;;5035252;28;20303;-42
2021/04/09 08:47:07;;;;;;;6.18;4.47;;;11.80;66.50;;;;;;5035464;28;20229;-44
2021/04/09 08:49:34;;;;;;;4.82;4.35;;;12.00;65.30;;;;;;5035361;28;20239;-46
2021/04/09 08:52:02;;;;;;;11.75;7.47;;;12.20;63.40;;;;;;5035287;28;20340;-46
2021/04/09 08:54:30;;;;;;;12.85;4.03;;;12.30;62.90;;;;;;5035315;28;20342;-44
2021/04/09 08:56:58;;;;;;;5.88;4.75;;;12.40;62.70;;;;;;5034989;28;20629;-47
2021/04/09 08:59:44;;;;;;;6.78;5.53;;;12.50;61.80;;;;;;5035037;28;20216;-44
2021/04/09 09:02:17;;;;;;;5.70;3.88;;;12.60;60.90;;;;;;5035105;28;20216;-44
2021/04/09 09:04:58;;;;;;;8.10;4.57;;;12.80;60.40;;;;;;5035176;28;20208;-44
2021/04/09 09:07:57;;;;;;;8.35;4.47;;;13.10;59.60;;;;;;5035023;28;20577;-44
2021/04/09 09:10:55;;;;;;;6.20;3.88;;;13.40;57.70;;;;;;5011383;28;20287;-47
2021/04/09 09:13:32;;;;;;;4.07;3.45;;;13.50;57.90;;;;;;5034860;28;20266;-44
2021/04/09 09:16:01;;;;;;;4.97;3.72;;;13.60;57.20;;;;;;5035001;28;20208;-43
2021/04/09 09:18:46;;;;;;;7.03;4.47;;;13.70;57.60;;;;;;5034713;28;20707;-44
2021/04/09 09:21:24;;;;;;;8.07;3.60;;;13.80;56.70;;;;;;5035088;28;20300;-44
2021/04/09 09:23:52;;;;;;;4.50;4.10;;;14.00;56.30;;;;;;5034641;28;20213;-44
2021/04/09 09:26:24;;;;;;;5.25;3.58;;;14.00;56.40;;;;;;5034836;28;20271;-44
2021/04/09 09:29:10;;;;;;;4.80;3.60;;;14.10;55.90;;;;;;5034708;28;20215;-47
2021/04/09 09:31:39;;;;;;;5.97;5.45;;;14.20;55.40;;;;;;5034654;28;20282;-44
2021/04/09 09:34:35;;;;;;;15.70;12.15;;;14.30;55.40;;;;;;5034544;28;20209;-43
2021/04/09 09:37:06;;;;;;;8.35;5.65;;;14.40;54.80;;;;;;5028704;28;20206;-45
2021/04/09 09:39:37;;;;;;;9.93;7.43;;;14.50;54.80;;;;;;5034227;28;20209;-43
2021/04/09 09:42:06;;;;;;;9.52;5.03;;;14.50;54.30;;;;;;5034299;28;20308;-43
2021/04/09 09:44:36;;;;;;;5.25;3.80;;;14.60;54.00;;;;;;5034463;28;20216;-45
2021/04/09 09:47:06;;;;;;;8.00;6.65;;;14.70;53.30;;;;;;5034147;28;20267;-43
2021/04/09 09:49:36;;;;;;;4.65;4.15;;;14.70;53.40;;;;;;5034496;28;20295;-44
2021/04/09 09:52:22;;;;;;;3.47;3.13;;;15.00;52.60;;;;;;5034287;28;20212;-42
2021/04/09 09:55:14;;;;;;;5.07;3.22;;;15.20;49.40;;;;;;5034016;28;20248;-45
2021/04/09 09:57:47;;;;;;;3.08;2.35;;;15.30;49.50;;;;;;5034054;28;20288;-44
2021/04/09 10:00:15;;;;;;;3.63;2.20;;;15.30;47.60;;;;;;5034111;28;20254;-46
2021/04/09 10:02:43;;;;;;;2.65;2.00;;;15.40;47.70;;;;;;5034022;28;20348;-49
2021/04/09 10:05:12;;;;;;;6.00;3.70;;;15.50;46.30;;;;;;5033928;28;20244;-44
2021/04/09 10:07:40;;;;;;;3.65;2.60;;;15.60;44.50;;;;;;5033613;28;20304;-46
2021/04/09 10:10:08;;;;;;;2.28;2.08;;;15.60;44.90;;;;;;5033880;28;20426;-43
2021/04/09 10:12:35;;;;;;;2.30;2.03;;;15.50;44.20;;;;;;5033814;28;20209;-43
2021/04/09 10:15:02;;;;;;;4.57;2.10;;;15.40;43.40;;;;;;5033887;28;20296;-43
2021/04/09 10:17:29;;;;;;;3.22;2.22;;;15.30;43.10;;;;;;5033751;28;20299;-42
2021/04/09 10:20:07;;;;;;;3.47;2.83;;;15.20;43.10;;;;;;5033723;28;20212;-42
2021/04/09 10:22:35;;;;;;;5.90;2.95;;;15.20;44.40;;;;;;5033682;28;20735;-44
2021/04/09 10:25:02;;;;;;;4.82;2.95;;;15.30;45.00;;;;;;5033901;28;20208;-41
2021/04/09 10:27:29;;;;;;;3.72;2.30;;;15.50;43.30;;;;;;5033511;28;20243;-44
2021/04/09 10:29:56;;;;;;;5.40;2.85;;;15.50;42.50;;;;;;5033396;28;20219;-45
2021/04/09 10:32:25;;;;;;;4.32;2.97;;;15.70;42.60;;;;;;5033406;28;20675;-45
2021/04/09 10:34:52;;;;;;;5.35;2.50;;;15.80;41.70;;;;;;5033224;28;20209;-44
2021/04/09 10:37:22;;;;;;;2.97;2.20;;;16.00;40.50;;;;;;5033610;28;20204;-47
2021/04/09 10:39:50;;;;;;;3.20;2.20;;;16.00;40.40;;;;;;5033340;28;20209;-44
2021/04/09 10:42:19;;;;;;;2.47;2.20;;;16.10;40.60;;;;;;5034436;28;20602;-45
2021/04/09 10:44:46;;;;;;;6.90;2.88;;;16.20;40.50;;;;;;5032802;28;20213;-45
2021/04/09 10:47:14;;;;;;;3.90;3.00;;;16.40;39.60;;;;;;5032809;28;20283;-45
2021/04/09 10:49:42;;;;;;;3.47;2.33;;;16.50;39.70;;;;;;5033250;28;20611;-43
2021/04/09 10:52:11;;;;;;;4.50;2.67;;;16.50;39.30;;;;;;5032284;28;20243;-47
2021/04/09 10:54:40;;;;;;;3.97;2.42;;;16.60;39.70;;;;;;5032971;28;20262;-43
2021/04/09 10:57:11;;;;;;;4.45;2.25;;;16.70;39.30;;;;;;5026809;28;20216;-44
2021/04/09 10:59:40;;;;;;;4.57;2.80;;;16.80;38.90;;;;;;5013550;28;20270;-45
2021/04/09 11:02:08;;;;;;;5.10;2.67;;;16.90;38.90;;;;;;5012392;28;20308;-44
2021/04/09 11:04:38;;;;;;;3.17;2.88;;;17.00;38.90;;;;;;5013095;28;20216;-37
2021/04/09 11:07:07;;;;;;;2.78;2.50;;;17.20;39.00;;;;;;5012961;28;20245;-44
2021/04/09 11:09:41;;;;;;;4.40;2.50;;;17.50;39.20;;;;;;5013198;28;20217;-45
2021/04/09 11:12:23;;;;;;;3.63;2.60;;;17.70;38.80;;;;;;5012939;28;20225;-45
2021/04/09 11:14:52;;;;;;;3.75;2.85;;;17.90;38.30;;;;;;5013145;28;20289;-43
2021/04/09 11:17:25;;;;;;;4.68;2.28;;;18.20;38.40;;;;;;5012775;28;20259;-48
2021/04/09 11:19:55;;;;;;;2.72;2.22;;;18.30;38.00;;;;;;5020996;28;20208;-49
2021/04/09 11:22:25;;;;;;;3.67;2.17;;;18.30;37.80;;;;;;5012963;28;20213;-45
2021/04/09 11:25:00;;;;;;;2.38;2.13;;;18.10;37.50;;;;;;5012611;28;20216;-46
2021/04/09 11:27:32;;;;;;;4.95;2.30;;;18.00;37.80;;;;;;5012372;28;20249;-44
2021/04/09 11:30:11;;;;;;;7.57;2.60;;;18.00;37.50;;;;;;5012531;28;20727;-45
2021/04/09 11:32:41;;;;;;;3.92;2.38;;;17.90;36.60;;;;;;5012615;28;20244;-46
2021/04/09 11:35:10;;;;;;;2.67;2.33;;;17.70;36.60;;;;;;5012418;28;20704;-48
2021/04/09 11:37:45;;;;;;;2.53;2.13;;;17.60;36.60;;;;;;5012510;28;20241;-45
2021/04/09 11:40:14;;;;;;;2.92;2.05;;;17.70;36.70;;;;;;5012389;28;20675;-44
2021/04/09 11:42:43;;;;;;;2.85;2.42;;;17.80;36.20;;;;;;5012134;28;20212;-47
2021/04/09 11:45:16;;;;;;;3.75;2.22;;;17.90;36.50;;;;;;5012247;28;20260;-47
2021/04/09 11:47:44;;;;;;;5.28;2.47;;;17.90;35.70;;;;;;5013341;28;20369;-45
2021/04/09 11:50:17;;;;;;;3.40;2.63;;;17.80;35.80;;;;;;5011579;28;20236;-47
2021/04/09 11:52:56;;;;;;;6.28;2.67;;;17.80;35.60;;;;;;5012185;28;20611;-47
2021/04/09 11:55:27;;;;;;;4.35;3.65;;;17.80;34.80;;;;;;5012097;28;20575;-47
2021/04/09 11:57:55;;;;;;;10.43;2.40;;;17.70;35.10;;;;;;5012602;28;20225;-49
2021/04/09 12:00:25;;;;;;;2.83;2.38;;;17.70;35.20;;;;;;5012143;28;20221;-48
2021/04/09 12:02:54;;;;;;;3.50;1.90;;;17.80;35.20;;;;;;5011940;28;20479;-46
2021/04/09 12:05:22;;;;;;;9.57;4.45;;;17.90;34.80;;;;;;5011751;28;20211;-46
2021/04/09 12:07:49;;;;;;;2.25;2.05;;;18.00;34.20;;;;;;5012063;28;20205;-45
2021/04/09 12:10:17;;;;;;;5.22;1.85;;;18.00;34.20;;;;;;5011900;28;20252;-44
2021/04/09 12:12:56;;;;;;;3.75;2.10;;;18.20;34.20;;;;;;5014609;28;20213;-45
2021/04/09 12:15:44;;;;;;;3.75;2.45;;;18.40;34.00;;;;;;5014160;28;20263;-46
2021/04/09 12:18:19;;;;;;;3.53;2.55;;;18.60;34.10;;;;;;5015392;28;20224;-49
2021/04/09 12:20:46;;;;;;;2.55;2.35;;;18.70;33.70;;;;;;5016600;28;20664;-44
2021/04/09 12:23:13;;;;;;;5.00;2.22;;;18.80;33.50;;;;;;5012732;28;20664;-46
2021/04/09 12:25:40;;;;;;;2.75;1.90;;;19.00;33.60;;;;;;5013481;28;20608;-43
2021/04/09 12:28:07;;;;;;;2.33;1.98;;;19.10;33.00;;;;;;5008010;28;20205;-45
2021/04/09 12:30:34;;;;;;;4.28;2.10;;;19.10;33.20;;;;;;5014693;28;20260;-45
2021/04/09 12:33:02;;;;;;;2.50;2.30;;;19.20;32.70;;;;;;5012195;28;20208;-47
2021/04/09 12:35:29;;;;;;;2.75;2.25;;;19.10;32.50;;;;;;5011890;28;20587;-45
2021/04/09 12:37:56;;;;;;;1.88;1.70;;;19.00;32.50;;;;;;5011750;28;20215;-44
2021/04/09 12:40:24;;;;;;;3.53;2.65;;;19.00;32.50;;;;;;5012039;28;20209;-46
2021/04/09 12:42:51;;;;;;;3.53;1.98;;;19.10;32.00;;;;;;5011850;28;20331;-47
2021/04/09 12:45:19;;;;;;;4.57;2.50;;;19.10;31.80;;;;;;5011718;28;20213;-48
2021/04/09 12:47:46;;;;;;;3.25;2.30;;;19.10;31.30;;;;;;5011642;28;20328;-46
2021/04/09 12:50:14;;;;;;;2.50;2.30;;;19.10;31.50;;;;;;5011553;28;20284;-46
2021/04/09 12:52:42;;;;;;;2.28;1.70;;;19.00;31.10;;;;;;5012059;28;20217;-47
2021/04/09 12:55:10;;;;;;;9.82;7.43;;;18.90;31.20;;;;;;5011896;28;20347;-44
2021/04/09 12:57:37;;;;;;;2.95;2.55;;;18.90;31.50;;;;;;5011490;28;20260;-45
2021/04/09 13:00:06;;;;;;;4.55;2.42;;;18.90;31.10;;;;;;5011625;28;20318;-45
2021/04/09 13:02:37;;;;;;;3.55;1.73;;;18.80;30.80;;;;;;5011840;28;20261;-47